CheckWX is a tool to help pilots better visualize weather data.  It is not intended as a substitute for an official pre-flight weather briefing.

07:03:58 UTC

KORD TAF
Chicago O'hare International Airport
Chicago, Illinois, USA
KORD 160619Z 1606/1712 04008KT 4SM -SHRA BR OVC006 TEMPO 1606/1608 2SM -RA BR BKN004 FM160800 08005KT 4SM BR OVC004 FM161500 05006KT 6SM BR OVC007 FM161700 06007KT P6SM OVC009 FM161900 04010KT P6SM OVC015

Jun-16@
06:00 UTC

Jun-16 @ 06:00 UTC

Jun-16@
08:00 UTC

Jun-16 @ 08:00 UTC

KORD 160619Z 1606/1712 04008KT 4SM -SHRA BR OVC006
Wind
  • 040° at 8 KTS
Conditions
Light Rain, Mist
Cloud Levels
  • Overcast at 600' AGL

Jun-16@
06:00 UTC

Jun-16 @ 06:00 UTC

Jun-16@
08:00 UTC

Jun-16 @ 08:00 UTC

TEMPO 1606/1608 2SM -RA BR BKN004

Temporary

Temporary Changes expected for less than half the time period

Conditions
Light Rain, Mist
Cloud Levels
  • Broken at 400' AGL

Jun-16@
08:00 UTC

Jun-16 @ 08:00 UTC

Jun-16@
15:00 UTC

Jun-16 @ 15:00 UTC

FM160800 08005KT 4SM BR OVC004

From

From Standard forecast or significant change

Wind
  • 080° at 5 KTS
Conditions
Mist
Cloud Levels
  • Overcast at 400' AGL

Jun-16@
15:00 UTC

Jun-16 @ 15:00 UTC

Jun-16@
17:00 UTC

Jun-16 @ 17:00 UTC

FM161500 05006KT 6SM BR OVC007

From

From Standard forecast or significant change

Wind
  • 050° at 6 KTS
Conditions
Mist
Cloud Levels
  • Overcast at 700' AGL

Jun-16@
17:00 UTC

Jun-16 @ 17:00 UTC

Jun-16@
19:00 UTC

Jun-16 @ 19:00 UTC

FM161700 06007KT P6SM OVC009

From

From Standard forecast or significant change

Wind
  • 060° at 7 KTS
Cloud Levels
  • Overcast at 900' AGL

Jun-16@
19:00 UTC

Jun-16 @ 19:00 UTC

Jun-17@
12:00 UTC

Jun-17 @ 12:00 UTC

FM161900 04010KT P6SM OVC015

From

From Standard forecast or significant change

Wind
  • 040° at 10 KTS
Cloud Levels
  • Overcast at 1,500' AGL